sensor_id;sensor_type;location;lat;lon;timestamp;pressure;altitude;pressure_sealevel;temperature;humidity
36598;BME280;22607;49.550;11.940;2022-12-29T00:01:44;96549.31;;;4.04;100.00
36598;BME280;22607;49.550;11.940;2022-12-29T00:04:12;96552.00;;;4.22;100.00
36598;BME280;22607;49.550;11.940;2022-12-29T00:06:42;96547.63;;;4.03;100.00
36598;BME280;22607;49.550;11.940;2022-12-29T00:09:10;96542.88;;;3.98;100.00
36598;BME280;22607;49.550;11.940;2022-12-29T00:11:37;96541.50;;;4.04;100.00
36598;BME280;22607;49.550;11.940;2022-12-29T00:14:06;96533.81;;;4.12;100.00
36598;BME280;22607;49.550;11.940;2022-12-29T00:16:51;96533.41;;;4.07;100.00
36598;BME280;22607;49.550;11.940;2022-12-29T00:19:18;96536.53;;;4.11;100.00
36598;BME280;22607;49.550;11.940;2022-12-29T00:22:03;96533.28;;;4.09;100.00
36598;BME280;22607;49.550;11.940;2022-12-29T00:24:48;96536.81;;;4.17;100.00
36598;BME280;22607;49.550;11.940;2022-12-29T00:27:26;96529.19;;;4.16;100.00
36598;BME280;22607;49.550;11.940;2022-12-29T00:30:12;96539.16;;;4.11;100.00
36598;BME280;22607;49.550;11.940;2022-12-29T00:32:57;96526.16;;;4.11;100.00
36598;BME280;22607;49.550;11.940;2022-12-29T00:35:50;96520.16;;;4.10;100.00
36598;BME280;22607;49.550;11.940;2022-12-29T00:38:18;96530.28;;;4.13;100.00
36598;BME280;22607;49.550;11.940;2022-12-29T00:41:04;96523.97;;;4.16;100.00
36598;BME280;22607;49.550;11.940;2022-12-29T00:43:49;96522.47;;;4.03;100.00
36598;BME280;22607;49.550;11.940;2022-12-29T00:46:37;96525.47;;;4.09;100.00
36598;BME280;22607;49.550;11.940;2022-12-29T00:49:08;96517.72;;;3.89;100.00
36598;BME280;22607;49.550;11.940;2022-12-29T00:51:53;96519.34;;;3.90;100.00
36598;BME280;22607;49.550;11.940;2022-12-29T00:54:34;96519.91;;;3.84;100.00
36598;BME280;22607;49.550;11.940;2022-12-29T00:57:03;96524.28;;;3.93;100.00
36598;BME280;22607;49.550;11.940;2022-12-29T00:59:29;96518.09;;;3.84;100.00
36598;BME280;22607;49.550;11.940;2022-12-29T01:01:58;96525.22;;;3.82;100.00
36598;BME280;22607;49.550;11.940;2022-12-29T01:04:25;96521.53;;;3.85;100.00
36598;BME280;22607;49.550;11.940;2022-12-29T01:06:53;96519.22;;;3.81;100.00
36598;BME280;22607;49.550;11.940;2022-12-29T01:09:19;96524.00;;;3.76;100.00
36598;BME280;22607;49.550;11.940;2022-12-29T01:12:11;96520.03;;;3.82;100.00
36598;BME280;22607;49.550;11.940;2022-12-29T01:14:39;96524.28;;;3.93;100.00
36598;BME280;22607;49.550;11.940;2022-12-29T01:17:05;96511.38;;;4.01;100.00
36598;BME280;22607;49.550;11.940;2022-12-29T01:19:32;96511.94;;;4.05;100.00
36598;BME280;22607;49.550;11.940;2022-12-29T01:21:59;96509.47;;;4.13;100.00
36598;BME280;22607;49.550;11.940;2022-12-29T01:24:26;96509.75;;;4.10;100.00
36598;BME280;22607;49.550;11.940;2022-12-29T01:26:53;96503.59;;;4.11;100.00
36598;BME280;22607;49.550;11.940;2022-12-29T01:29:20;96499.88;;;4.14;100.00
36598;BME280;22607;49.550;11.940;2022-12-29T01:31:47;96502.09;;;4.18;100.00
36598;BME280;22607;49.550;11.940;2022-12-29T01:34:17;96497.28;;;4.24;100.00
36598;BME280;22607;49.550;11.940;2022-12-29T01:36:44;96505.06;;;4.24;100.00
36598;BME280;22607;49.550;11.940;2022-12-29T01:39:10;96498.25;;;4.23;100.00
36598;BME280;22607;49.550;11.940;2022-12-29T01:41:37;96494.13;;;4.20;100.00
36598;BME280;22607;49.550;11.940;2022-12-29T01:44:39;96504.28;;;4.03;100.00
36598;BME280;22607;49.550;11.940;2022-12-29T01:46:49;96494.44;;;4.07;100.00
36598;BME280;22607;49.550;11.940;2022-12-29T01:49:18;96496.19;;;4.16;100.00
36598;BME280;22607;49.550;11.940;2022-12-29T01:51:55;96500.31;;;4.09;100.00
36598;BME280;22607;49.550;11.940;2022-12-29T01:56:57;96481.81;;;4.22;100.00
36598;BME280;22607;49.550;11.940;2022-12-29T01:59:46;96478.53;;;4.20;100.00
36598;BME280;22607;49.550;11.940;2022-12-29T02:02:17;96470.91;;;4.09;100.00
36598;BME280;22607;49.550;11.940;2022-12-29T02:04:44;96474.16;;;4.20;100.00
36598;BME280;22607;49.550;11.940;2022-12-29T02:07:13;96466.34;;;4.30;100.00
36598;BME280;22607;49.550;11.940;2022-12-29T02:09:45;96469.47;;;4.34;100.00
36598;BME280;22607;49.550;11.940;2022-12-29T02:12:12;96462.66;;;4.23;100.00
36598;BME280;22607;49.550;11.940;2022-12-29T02:14:39;96463.47;;;4.24;100.00
36598;BME280;22607;49.550;11.940;2022-12-29T02:24:58;96442.63;;;4.43;100.00
36598;BME280;22607;49.550;11.940;2022-12-29T02:30:12;96450.94;;;4.47;100.00
36598;BME280;22607;49.550;11.940;2022-12-29T02:35:20;96448.03;;;4.60;100.00
36598;BME280;22607;49.550;11.940;2022-12-29T02:37:56;96451.03;;;4.55;100.00
36598;BME280;22607;49.550;11.940;2022-12-29T02:40:42;96452.38;;;4.69;100.00
36598;BME280;22607;49.550;11.940;2022-12-29T02:46:04;96454.91;;;4.51;100.00
36598;BME280;22607;49.550;11.940;2022-12-29T02:48:41;96454.75;;;4.53;100.00
36598;BME280;22607;49.550;11.940;2022-12-29T02:51:10;96449.94;;;4.58;100.00
36598;BME280;22607;49.550;11.940;2022-12-29T02:53:39;96448.91;;;4.51;100.00
36598;BME280;22607;49.550;11.940;2022-12-29T02:56:27;96444.22;;;4.54;100.00
36598;BME280;22607;49.550;11.940;2022-12-29T02:58:53;96446.94;;;4.53;100.00
36598;BME280;22607;49.550;11.940;2022-12-29T03:01:24;96443.69;;;4.51;100.00
36598;BME280;22607;49.550;11.940;2022-12-29T03:06:33;96444.25;;;4.44;100.00
36598;BME280;22607;49.550;11.940;2022-12-29T03:11:48;96448.66;;;4.44;100.00
36598;BME280;22607;49.550;11.940;2022-12-29T03:17:51;96444.16;;;4.64;100.00
36598;BME280;22607;49.550;11.940;2022-12-29T03:20:23;96441.41;;;4.66;100.00
36598;BME280;22607;49.550;11.940;2022-12-29T03:22:55;96442.81;;;4.60;100.00
36598;BME280;22607;49.550;11.940;2022-12-29T03:25:31;96443.53;;;4.52;100.00
36598;BME280;22607;49.550;11.940;2022-12-29T03:28:05;96429.91;;;4.68;100.00
36598;BME280;22607;49.550;11.940;2022-12-29T03:30:33;96425.75;;;4.76;99.28
36598;BME280;22607;49.550;11.940;2022-12-29T03:33:02;96427.59;;;4.65;100.00
36598;BME280;22607;49.550;11.940;2022-12-29T03:35:31;96423.59;;;4.71;99.26
36598;BME280;22607;49.550;11.940;2022-12-29T03:38:00;96422.78;;;4.70;99.25
36598;BME280;22607;49.550;11.940;2022-12-29T03:40:28;96420.75;;;4.64;100.00
36598;BME280;22607;49.550;11.940;2022-12-29T03:42:57;96420.28;;;4.79;100.00
36598;BME280;22607;49.550;11.940;2022-12-29T03:45:24;96420.28;;;4.79;99.06
36598;BME280;22607;49.550;11.940;2022-12-29T03:47:51;96428.88;;;4.79;99.63
36598;BME280;22607;49.550;11.940;2022-12-29T03:50:18;96419.97;;;4.82;99.59
36598;BME280;22607;49.550;11.940;2022-12-29T03:52:50;96421.06;;;4.79;99.98
36598;BME280;22607;49.550;11.940;2022-12-29T03:55:17;96421.44;;;4.84;100.00
36598;BME280;22607;49.550;11.940;2022-12-29T03:57:44;96429.03;;;4.78;100.00
36598;BME280;22607;49.550;11.940;2022-12-29T04:00:11;96425.25;;;4.72;100.00
36598;BME280;22607;49.550;11.940;2022-12-29T04:02:37;96423.19;;;4.66;98.88
36598;BME280;22607;49.550;11.940;2022-12-29T04:05:04;96424.06;;;4.84;98.51
36598;BME280;22607;49.550;11.940;2022-12-29T04:07:31;96422.28;;;4.85;96.12
36598;BME280;22607;49.550;11.940;2022-12-29T04:09:57;96423.69;;;4.79;97.05
36598;BME280;22607;49.550;11.940;2022-12-29T04:12:31;96420.28;;;4.79;98.16
36598;BME280;22607;49.550;11.940;2022-12-29T04:14:58;96414.75;;;4.82;98.23
36598;BME280;22607;49.550;11.940;2022-12-29T04:17:24;96416.16;;;4.76;98.82
36598;BME280;22607;49.550;11.940;2022-12-29T04:19:57;96420.69;;;4.74;98.69
36598;BME280;22607;49.550;11.940;2022-12-29T04:22:44;96419.59;;;4.77;94.54
36598;BME280;22607;49.550;11.940;2022-12-29T04:25:10;96417.47;;;4.90;96.27
36598;BME280;22607;49.550;11.940;2022-12-29T04:27:39;96424.13;;;4.75;96.70
36598;BME280;22607;49.550;11.940;2022-12-29T04:30:05;96415.81;;;4.89;96.19
36598;BME280;22607;49.550;11.940;2022-12-29T04:32:32;96416.41;;;4.83;96.39
36598;BME280;22607;49.550;11.940;2022-12-29T04:34:59;96425.91;;;4.74;96.55
36598;BME280;22607;49.550;11.940;2022-12-29T04:37:26;96420.69;;;4.74;97.04
36598;BME280;22607;49.550;11.940;2022-12-29T04:39:52;96418.34;;;4.81;97.07
36598;BME280;22607;49.550;11.940;2022-12-29T04:42:19;96412.25;;;4.90;95.49
36598;BME280;22607;49.550;11.940;2022-12-29T04:44:46;96414.47;;;4.85;93.98
36598;BME280;22607;49.550;11.940;2022-12-29T04:47:12;96419.09;;;4.91;94.86
36598;BME280;22607;49.550;11.940;2022-12-29T04:49:38;96417.47;;;4.90;96.13
36598;BME280;22607;49.550;11.940;2022-12-29T04:52:05;96417.22;;;5.02;94.10
36598;BME280;22607;49.550;11.940;2022-12-29T04:54:31;96414.47;;;4.85;95.72
36598;BME280;22607;49.550;11.940;2022-12-29T04:57:03;96407.50;;;5.04;92.49
36598;BME280;22607;49.550;11.940;2022-12-29T04:59:30;96409.03;;;4.78;96.61
36598;BME280;22607;49.550;11.940;2022-12-29T05:01:56;96410.63;;;4.89;98.44
36598;BME280;22607;49.550;11.940;2022-12-29T05:04:23;96411.63;;;4.78;99.40
36598;BME280;22607;49.550;11.940;2022-12-29T05:06:49;96413.38;;;4.88;96.59
36598;BME280;22607;49.550;11.940;2022-12-29T05:09:16;96415.13;;;4.87;95.14
36598;BME280;22607;49.550;11.940;2022-12-29T05:11:43;96410.16;;;4.94;95.42
36598;BME280;22607;49.550;11.940;2022-12-29T05:14:12;96401.00;;;4.71;97.73
36598;BME280;22607;49.550;11.940;2022-12-29T05:16:40;96403.97;;;4.77;97.52
36598;BME280;22607;49.550;11.940;2022-12-29T05:19:07;96407.13;;;4.98;95.54
36598;BME280;22607;49.550;11.940;2022-12-29T05:21:33;96404.97;;;4.94;96.77
36598;BME280;22607;49.550;11.940;2022-12-29T05:23:59;96399.56;;;5.05;95.40
36598;BME280;22607;49.550;11.940;2022-12-29T05:26:26;96408.03;;;4.89;96.71
36598;BME280;22607;49.550;11.940;2022-12-29T05:28:52;96400.31;;;4.97;97.16
36598;BME280;22607;49.550;11.940;2022-12-29T05:31:19;96395.47;;;5.03;94.07
36598;BME280;22607;49.550;11.940;2022-12-29T05:33:47;96395.75;;;4.99;93.76
36598;BME280;22607;49.550;11.940;2022-12-29T05:36:14;96403.41;;;5.01;93.90
36598;BME280;22607;49.550;11.940;2022-12-29T05:38:40;96399.34;;;4.98;95.24
36598;BME280;22607;49.550;11.940;2022-12-29T05:41:15;96405.88;;;5.03;95.76
36598;BME280;22607;49.550;11.940;2022-12-29T05:43:41;96388.53;;;5.11;94.99
36598;BME280;22607;49.550;11.940;2022-12-29T05:46:08;96404.69;;;4.97;95.33
36598;BME280;22607;49.550;11.940;2022-12-29T05:51:09;96404.22;;;5.02;94.52
36598;BME280;22607;49.550;11.940;2022-12-29T05:53:36;96402.03;;;5.07;95.88
36598;BME280;22607;49.550;11.940;2022-12-29T05:56:02;96403.03;;;5.14;95.51
36598;BME280;22607;49.550;11.940;2022-12-29T05:58:32;96408.53;;;5.11;96.55
36598;BME280;22607;49.550;11.940;2022-12-29T06:00:58;96416.13;;;5.04;94.56
36598;BME280;22607;49.550;11.940;2022-12-29T06:03:26;96405.50;;;5.16;92.83
36598;BME280;22607;49.550;11.940;2022-12-29T06:05:53;96403.72;;;5.16;90.85
36598;BME280;22607;49.550;11.940;2022-12-29T06:08:20;96407.88;;;5.09;91.66
36598;BME280;22607;49.550;11.940;2022-12-29T06:10:47;96404.63;;;5.25;89.81
36598;BME280;22607;49.550;11.940;2022-12-29T06:13:13;96408.75;;;5.18;91.75
36598;BME280;22607;49.550;11.940;2022-12-29T06:15:40;96403.28;;;5.03;91.71
36598;BME280;22607;49.550;11.940;2022-12-29T06:18:06;96389.66;;;5.09;91.32
36598;BME280;22607;49.550;11.940;2022-12-29T06:20:33;96381.19;;;5.07;90.89
36598;BME280;22607;49.550;11.940;2022-12-29T06:23:00;96377.38;;;5.01;91.20
36598;BME280;22607;49.550;11.940;2022-12-29T06:25:26;96381.78;;;5.01;91.49
36598;BME280;22607;49.550;11.940;2022-12-29T06:30:31;96389.44;;;5.02;90.25
36598;BME280;22607;49.550;11.940;2022-12-29T06:33:06;96382.22;;;5.14;88.74
36598;BME280;22607;49.550;11.940;2022-12-29T06:35:34;96388.69;;;4.92;89.94
36598;BME280;22607;49.550;11.940;2022-12-29T06:38:01;96394.63;;;4.84;89.90
36598;BME280;22607;49.550;11.940;2022-12-29T06:40:29;96408.53;;;4.93;91.06
36598;BME280;22607;49.550;11.940;2022-12-29T06:42:55;96407.66;;;5.02;89.42
36598;BME280;22607;49.550;11.940;2022-12-29T06:45:22;96399.53;;;4.87;92.65
36598;BME280;22607;49.550;11.940;2022-12-29T06:47:48;96401.88;;;4.80;94.70
36598;BME280;22607;49.550;11.940;2022-12-29T06:50:14;96397.06;;;4.85;89.64
36598;BME280;22607;49.550;11.940;2022-12-29T06:52:41;96393.19;;;4.71;91.84
36598;BME280;22607;49.550;11.940;2022-12-29T06:55:07;96387.22;;;4.61;92.45
36598;BME280;22607;49.550;11.940;2022-12-29T06:57:34;96398.06;;;4.56;94.38
36598;BME280;22607;49.550;11.940;2022-12-29T07:00:00;96387.97;;;4.53;93.82
36598;BME280;22607;49.550;11.940;2022-12-29T07:02:26;96378.50;;;4.52;94.40
36598;BME280;22607;49.550;11.940;2022-12-29T07:04:54;96380.88;;;4.45;94.35
36598;BME280;22607;49.550;11.940;2022-12-29T07:07:20;96380.97;;;4.54;95.61
36598;BME280;22607;49.550;11.940;2022-12-29T07:09:47;96389.13;;;4.41;95.57
36598;BME280;22607;49.550;11.940;2022-12-29T07:12:13;96394.56;;;4.47;95.48
36598;BME280;22607;49.550;11.940;2022-12-29T07:14:47;96395.81;;;4.43;95.01
36598;BME280;22607;49.550;11.940;2022-12-29T07:17:14;96381.84;;;4.44;93.63
36598;BME280;22607;49.550;11.940;2022-12-29T07:19:41;96387.34;;;4.41;94.17
36598;BME280;22607;49.550;11.940;2022-12-29T07:22:08;96392.22;;;4.44;92.76
36598;BME280;22607;49.550;11.940;2022-12-29T07:24:35;96387.28;;;4.51;92.51
36598;BME280;22607;49.550;11.940;2022-12-29T07:27:01;96386.41;;;4.60;91.18
36598;BME280;22607;49.550;11.940;2022-12-29T07:29:28;96400.91;;;4.63;90.08
36598;BME280;22607;49.550;11.940;2022-12-29T07:31:57;96393.16;;;4.81;90.09
36598;BME280;22607;49.550;11.940;2022-12-29T07:34:24;96399.66;;;4.85;89.64
36598;BME280;22607;49.550;11.940;2022-12-29T07:36:50;96397.22;;;5.20;90.32
36598;BME280;22607;49.550;11.940;2022-12-29T07:39:16;96407.44;;;5.32;86.92
36598;BME280;22607;49.550;11.940;2022-12-29T07:41:43;96400.47;;;5.77;82.99
36598;BME280;22607;49.550;11.940;2022-12-29T07:44:09;96386.84;;;6.10;79.62
36598;BME280;22607;49.550;11.940;2022-12-29T07:49:22;96407.56;;;5.93;80.45
36598;BME280;22607;49.550;11.940;2022-12-29T07:51:48;96410.00;;;5.68;80.85
36598;BME280;22607;49.550;11.940;2022-12-29T07:54:15;96416.00;;;5.42;83.54
36598;BME280;22607;49.550;11.940;2022-12-29T07:56:45;96422.91;;;5.33;84.83
36598;BME280;22607;49.550;11.940;2022-12-29T07:59:13;96426.31;;;5.34;84.77
36598;BME280;22607;49.550;11.940;2022-12-29T08:04:10;96441.97;;;5.52;82.56
36598;BME280;22607;49.550;11.940;2022-12-29T08:06:36;96444.63;;;5.42;83.73
36598;BME280;22607;49.550;11.940;2022-12-29T08:09:03;96444.03;;;5.48;82.73
36598;BME280;22607;49.550;11.940;2022-12-29T08:11:43;96436.63;;;5.54;82.87
36598;BME280;22607;49.550;11.940;2022-12-29T08:14:16;96456.75;;;5.51;82.98
36598;BME280;22607;49.550;11.940;2022-12-29T08:16:42;96451.34;;;5.45;83.02
36598;BME280;22607;49.550;11.940;2022-12-29T08:19:10;96456.41;;;5.46;84.96
36598;BME280;22607;49.550;11.940;2022-12-29T08:21:36;96448.59;;;5.46;84.87
36598;BME280;22607;49.550;11.940;2022-12-29T08:24:03;96449.19;;;5.40;84.11
36598;BME280;22607;49.550;11.940;2022-12-29T08:26:29;96452.81;;;5.29;85.09
36598;BME280;22607;49.550;11.940;2022-12-29T08:28:57;96456.00;;;5.59;82.72
36598;BME280;22607;49.550;11.940;2022-12-29T08:31:24;96450.38;;;5.64;83.06
36598;BME280;22607;49.550;11.940;2022-12-29T08:33:50;96451.34;;;5.63;84.33
36598;BME280;22607;49.550;11.940;2022-12-29T08:36:18;96449.53;;;5.63;83.71
36598;BME280;22607;49.550;11.940;2022-12-29T08:38:45;96447.06;;;5.62;83.44
36598;BME280;22607;49.550;11.940;2022-12-29T08:41:12;96444.66;;;5.60;84.15
36598;BME280;22607;49.550;11.940;2022-12-29T08:43:38;96440.75;;;5.64;85.18
36598;BME280;22607;49.550;11.940;2022-12-29T08:46:05;96433.31;;;5.70;83.43
36598;BME280;22607;49.550;11.940;2022-12-29T08:48:31;96429.53;;;5.64;84.06
36598;BME280;22607;49.550;11.940;2022-12-29T08:50:58;96438.09;;;5.56;86.06
36598;BME280;22607;49.550;11.940;2022-12-29T08:53:24;96434.47;;;5.75;82.72
36598;BME280;22607;49.550;11.940;2022-12-29T08:56:01;96443.03;;;5.86;83.14
36598;BME280;22607;49.550;11.940;2022-12-29T08:58:37;96446.31;;;5.88;84.39
36598;BME280;22607;49.550;11.940;2022-12-29T09:01:08;96445.03;;;5.92;83.65
36598;BME280;22607;49.550;11.940;2022-12-29T09:03:37;96448.84;;;5.80;83.49
36598;BME280;22607;49.550;11.940;2022-12-29T09:06:23;96448.91;;;5.88;83.43
36598;BME280;22607;49.550;11.940;2022-12-29T09:08:56;96450.03;;;6.03;81.63
36598;BME280;22607;49.550;11.940;2022-12-29T09:11:23;96448.28;;;5.94;82.99
36598;BME280;22607;49.550;11.940;2022-12-29T09:13:50;96440.34;;;6.22;80.40
36598;BME280;22607;49.550;11.940;2022-12-29T09:16:17;96448.22;;;6.30;80.91
36598;BME280;22607;49.550;11.940;2022-12-29T09:18:44;96448.72;;;6.26;80.32
36598;BME280;22607;49.550;11.940;2022-12-29T09:21:16;96453.50;;;6.39;78.82
36598;BME280;22607;49.550;11.940;2022-12-29T09:23:51;96449.03;;;6.57;78.67
36598;BME280;22607;49.550;11.940;2022-12-29T09:26:17;96452.38;;;6.41;79.62
36598;BME280;22607;49.550;11.940;2022-12-29T09:28:44;96460.25;;;6.23;80.01
36598;BME280;22607;49.550;11.940;2022-12-29T09:31:11;96459.63;;;6.29;80.46
36598;BME280;22607;49.550;11.940;2022-12-29T09:33:48;96454.84;;;6.16;81.19
36598;BME280;22607;49.550;11.940;2022-12-29T09:36:15;96445.91;;;6.19;81.38
36598;BME280;22607;49.550;11.940;2022-12-29T09:38:41;96448.19;;;6.57;80.31
36598;BME280;22607;49.550;11.940;2022-12-29T09:41:17;96447.94;;;6.68;78.42
36598;BME280;22607;49.550;11.940;2022-12-29T09:48:51;96427.28;;;6.92;80.32
36598;BME280;22607;49.550;11.940;2022-12-29T09:51:22;96428.38;;;6.81;81.56
36598;BME280;22607;49.550;11.940;2022-12-29T09:53:51;96427.91;;;6.86;80.39
36598;BME280;22607;49.550;11.940;2022-12-29T09:56:20;96424.28;;;6.78;81.38
36598;BME280;22607;49.550;11.940;2022-12-29T09:58:54;96415.22;;;6.99;78.26
36598;BME280;22607;49.550;11.940;2022-12-29T10:01:36;96416.81;;;6.83;78.74
36598;BME280;22607;49.550;11.940;2022-12-29T10:04:05;96417.69;;;7.09;77.57
36598;BME280;22607;49.550;11.940;2022-12-29T10:17:17;96398.91;;;7.05;78.15
36598;BME280;22607;49.550;11.940;2022-12-29T10:25:17;96387.63;;;8.13;76.13
36598;BME280;22607;49.550;11.940;2022-12-29T10:27:48;96382.09;;;7.83;75.95
36598;BME280;22607;49.550;11.940;2022-12-29T10:30:15;96393.41;;;7.67;75.79
36598;BME280;22607;49.550;11.940;2022-12-29T10:32:47;96378.69;;;7.57;76.14
36598;BME280;22607;49.550;11.940;2022-12-29T10:35:19;96377.75;;;7.50;77.80
36598;BME280;22607;49.550;11.940;2022-12-29T10:38:02;96381.50;;;7.47;78.72
36598;BME280;22607;49.550;11.940;2022-12-29T10:43:07;96379.00;;;7.71;82.15
36598;BME280;22607;49.550;11.940;2022-12-29T10:45:46;96374.25;;;7.91;79.50
36598;BME280;22607;49.550;11.940;2022-12-29T10:50:58;96378.44;;;8.65;76.14
36598;BME280;22607;49.550;11.940;2022-12-29T10:53:30;96377.69;;;8.80;75.11
36598;BME280;22607;49.550;11.940;2022-12-29T10:56:00;96379.44;;;8.64;77.22
36598;BME280;22607;49.550;11.940;2022-12-29T10:58:28;96382.13;;;8.39;78.66
36598;BME280;22607;49.550;11.940;2022-12-29T11:00:55;96381.53;;;8.29;77.20
36598;BME280;22607;49.550;11.940;2022-12-29T11:03:29;96377.94;;;8.22;78.11
36598;BME280;22607;49.550;11.940;2022-12-29T11:11:37;96377.63;;;8.17;81.92
36598;BME280;22607;49.550;11.940;2022-12-29T11:14:20;96371.06;;;8.21;79.71
36598;BME280;22607;49.550;11.940;2022-12-29T11:17:00;96361.69;;;8.35;79.33
36598;BME280;22607;49.550;11.940;2022-12-29T11:19:28;96367.22;;;8.40;79.49
36598;BME280;22607;49.550;11.940;2022-12-29T11:22:42;96355.81;;;8.33;79.53
36598;BME280;22607;49.550;11.940;2022-12-29T11:24:46;96351.38;;;8.33;81.97
36598;BME280;22607;49.550;11.940;2022-12-29T11:27:14;96347.13;;;8.40;81.88
36598;BME280;22607;49.550;11.940;2022-12-29T11:29:42;96344.09;;;8.52;81.57
36598;BME280;22607;49.550;11.940;2022-12-29T11:32:12;96331.53;;;8.56;80.92
36598;BME280;22607;49.550;11.940;2022-12-29T11:37:18;96323.59;;;8.72;82.31
36598;BME280;22607;49.550;11.940;2022-12-29T11:42:37;96325.44;;;8.63;82.63
36598;BME280;22607;49.550;11.940;2022-12-29T11:45:27;96327.19;;;8.71;83.75
36598;BME280;22607;49.550;11.940;2022-12-29T11:47:54;96310.31;;;8.74;84.82
36598;BME280;22607;49.550;11.940;2022-12-29T11:50:34;96316.69;;;8.79;86.51
36598;BME280;22607;49.550;11.940;2022-12-29T11:53:15;96313.78;;;8.98;86.15
36598;BME280;22607;49.550;11.940;2022-12-29T11:55:56;96309.41;;;9.13;84.75
36598;BME280;22607;49.550;11.940;2022-12-29T11:58:30;96310.47;;;9.42;82.99
36598;BME280;22607;49.550;11.940;2022-12-29T12:03:54;96307.19;;;9.79;81.08
36598;BME280;22607;49.550;11.940;2022-12-29T12:06:25;96301.41;;;9.98;78.88
36598;BME280;22607;49.550;11.940;2022-12-29T12:08:55;96297.78;;;10.00;79.92
36598;BME280;22607;49.550;11.940;2022-12-29T12:11:36;96297.69;;;10.08;78.91
36598;BME280;22607;49.550;11.940;2022-12-29T12:16:34;96303.97;;;10.29;77.65
36598;BME280;22607;49.550;11.940;2022-12-29T12:19:02;96299.38;;;10.31;79.41
36598;BME280;22607;49.550;11.940;2022-12-29T12:21:42;96291.00;;;10.42;75.72
36598;BME280;22607;49.550;11.940;2022-12-29T12:32:35;96288.91;;;10.68;74.04
36598;BME280;22607;49.550;11.940;2022-12-29T12:35:13;96282.72;;;10.75;73.22
36598;BME280;22607;49.550;11.940;2022-12-29T12:45:45;96277.59;;;10.89;72.06
36598;BME280;22607;49.550;11.940;2022-12-29T12:51:02;96287.22;;;11.03;72.69
36598;BME280;22607;49.550;11.940;2022-12-29T12:53:37;96287.97;;;10.75;74.03
36598;BME280;22607;49.550;11.940;2022-12-29T13:12:13;96305.38;;;10.76;75.72
36598;BME280;22607;49.550;11.940;2022-12-29T13:17:55;96288.72;;;10.91;75.33
36598;BME280;22607;49.550;11.940;2022-12-29T13:20:36;96286.41;;;11.03;76.17
36598;BME280;22607;49.550;11.940;2022-12-29T13:23:30;96289.09;;;10.88;76.38
36598;BME280;22607;49.550;11.940;2022-12-29T13:34:05;96277.91;;;11.01;76.01
36598;BME280;22607;49.550;11.940;2022-12-29T13:36:44;96274.53;;;11.07;74.62
36598;BME280;22607;49.550;11.940;2022-12-29T13:39:23;96280.69;;;10.99;75.00
36598;BME280;22607;49.550;11.940;2022-12-29T13:41:55;96285.72;;;10.94;76.51
36598;BME280;22607;49.550;11.940;2022-12-29T13:44:25;96281.41;;;11.08;75.10
36598;BME280;22607;49.550;11.940;2022-12-29T13:49:39;96291.59;;;10.96;75.51
36598;BME280;22607;49.550;11.940;2022-12-29T13:52:12;96288.59;;;10.99;75.74
36598;BME280;22607;49.550;11.940;2022-12-29T14:00:44;96304.38;;;10.77;76.75
36598;BME280;22607;49.550;11.940;2022-12-29T14:03:26;96303.19;;;11.02;76.42
36598;BME280;22607;49.550;11.940;2022-12-29T14:11:46;96309.19;;;10.96;76.90
36598;BME280;22607;49.550;11.940;2022-12-29T14:14:19;96316.13;;;10.82;77.71
36598;BME280;22607;49.550;11.940;2022-12-29T14:16:53;96301.63;;;10.86;76.78
36598;BME280;22607;49.550;11.940;2022-12-29T14:19:27;96308.09;;;10.68;78.03
36598;BME280;22607;49.550;11.940;2022-12-29T14:22:04;96312.25;;;10.77;77.78
36598;BME280;22607;49.550;11.940;2022-12-29T14:29:44;96320.34;;;10.61;78.05
36598;BME280;22607;49.550;11.940;2022-12-29T14:34:47;96325.38;;;10.77;78.15
36598;BME280;22607;49.550;11.940;2022-12-29T14:40:26;96331.03;;;10.59;78.69
36598;BME280;22607;49.550;11.940;2022-12-29T14:48:30;96330.47;;;10.64;79.49
36598;BME280;22607;49.550;11.940;2022-12-29T14:50:58;96334.72;;;10.65;79.14
36598;BME280;22607;49.550;11.940;2022-12-29T14:56:27;96333.94;;;10.49;79.73
36598;BME280;22607;49.550;11.940;2022-12-29T15:01:39;96332.31;;;10.18;81.67
36598;BME280;22607;49.550;11.940;2022-12-29T15:04:21;96336.84;;;10.24;81.62
36598;BME280;22607;49.550;11.940;2022-12-29T15:06:56;96335.38;;;10.37;80.81
36598;BME280;22607;49.550;11.940;2022-12-29T15:09:36;96325.00;;;10.14;82.35
36598;BME280;22607;49.550;11.940;2022-12-29T15:14:51;96329.78;;;10.10;82.63
36598;BME280;22607;49.550;11.940;2022-12-29T15:17:35;96334.75;;;10.05;83.27
36598;BME280;22607;49.550;11.940;2022-12-29T15:23:09;96348.06;;;9.88;85.12
36598;BME280;22607;49.550;11.940;2022-12-29T15:25:47;96354.31;;;10.02;85.09
36598;BME280;22607;49.550;11.940;2022-12-29T15:28:19;96353.97;;;10.05;84.66
36598;BME280;22607;49.550;11.940;2022-12-29T15:31:02;96348.78;;;9.97;84.99
36598;BME280;22607;49.550;11.940;2022-12-29T15:33:37;96359.53;;;9.87;86.07
36598;BME280;22607;49.550;11.940;2022-12-29T15:51:38;96374.22;;;9.58;91.21
36598;BME280;22607;49.550;11.940;2022-12-29T15:54:01;96366.44;;;9.88;87.87
36598;BME280;22607;49.550;11.940;2022-12-29T15:56:29;96372.94;;;9.77;89.44
36598;BME280;22607;49.550;11.940;2022-12-29T16:01:34;96367.56;;;9.70;90.31
36598;BME280;22607;49.550;11.940;2022-12-29T16:04:09;96366.41;;;9.73;90.01
36598;BME280;22607;49.550;11.940;2022-12-29T16:06:36;96365.13;;;9.69;91.42
36598;BME280;22607;49.550;11.940;2022-12-29T16:09:04;96363.75;;;9.58;91.76
36598;BME280;22607;49.550;11.940;2022-12-29T16:11:35;96356.81;;;9.65;91.94
36598;BME280;22607;49.550;11.940;2022-12-29T16:17:13;96345.94;;;9.68;91.60
36598;BME280;22607;49.550;11.940;2022-12-29T16:32:25;96354.09;;;9.58;93.34
36598;BME280;22607;49.550;11.940;2022-12-29T16:35:16;96351.38;;;9.67;93.29
36598;BME280;22607;49.550;11.940;2022-12-29T16:43:03;96363.06;;;9.41;95.78
36598;BME280;22607;49.550;11.940;2022-12-29T16:45:46;96372.44;;;9.35;96.57